Time;durP1;ratioP1;P1;durP2;ratioP2;P2;SDS_P1;SDS_P2;PMS_P1;PMS_P2;Temp;Humidity;BMP_temperature;BMP_pressure;BME280_temperature;BME280_humidity;BME280_pressure;Samples;Min_cycle;Max_cycle;Signal;HPM_P1;HPM_P2
2022/03/26 00:01:24;;;;;;;11.85;7.97;;;;;;;5.86;52.72;98895.03;5052318;28;20155;-61
2022/03/26 00:03:49;;;;;;;13.23;7.80;;;;;;;5.91;52.89;98887.59;5052190;28;20082;-62
2022/03/26 00:06:15;;;;;;;18.90;8.55;;;;;;;5.88;53.12;98880.69;5053480;28;20344;-57
2022/03/26 00:08:40;;;;;;;16.23;8.57;;;;;;;5.86;52.55;98868.47;5053941;28;20486;-61
2022/03/26 00:11:06;;;;;;;16.83;8.20;;;;;;;5.63;53.10;98819.78;5052833;28;20029;-61
2022/03/26 00:13:31;;;;;;;15.55;8.48;;;;;;;5.73;52.90;98828.72;5052754;28;20033;-59
2022/03/26 00:15:57;;;;;;;17.27;7.70;;;;;;;5.82;53.11;98843.97;5053252;28;20021;-61
2022/03/26 00:18:22;;;;;;;17.23;8.73;;;;;;;5.82;53.01;98848.41;5034530;28;20032;-61
2022/03/26 00:20:48;;;;;;;13.98;7.45;;;;;;;5.58;53.64;98810.34;5052542;28;20120;-61
2022/03/26 00:23:14;;;;;;;13.95;8.20;;;;;;;5.72;53.20;98833.19;5052578;28;20029;-60
2022/03/26 00:25:39;;;;;;;15.63;8.85;;;;;;;5.71;53.31;98822.69;5053020;28;20061;-60
2022/03/26 00:28:05;;;;;;;13.48;8.18;;;;;;;5.68;53.74;98814.94;5053239;28;20374;-61
2022/03/26 00:30:31;;;;;;;12.95;8.18;;;;;;;5.69;53.88;98806.00;5052492;28;20024;-60
2022/03/26 00:32:57;;;;;;;13.45;7.88;;;;;;;5.68;53.45;98801.66;5034107;28;20115;-60
2022/03/26 00:35:22;;;;;;;13.32;7.82;;;;;;;5.65;53.46;98791.28;5052859;28;20124;-60
2022/03/26 00:37:48;;;;;;;11.85;7.65;;;;;;;5.63;53.70;98779.94;5034031;28;20601;-60
2022/03/26 00:40:13;;;;;;;13.60;8.10;;;;;;;5.59;53.67;98777.53;5052755;28;20649;-61
2022/03/26 00:42:39;;;;;;;11.90;7.30;;;;;;;5.63;53.68;98780.78;5052138;28;20387;-63
2022/03/26 00:45:06;;;;;;;11.02;7.57;;;;;;;5.63;53.71;98774.63;5052199;28;20167;-60
2022/03/26 00:47:32;;;;;;;13.63;7.72;;;;;;;5.65;53.69;98770.03;5052266;28;20032;-60
2022/03/26 00:49:57;;;;;;;10.48;7.57;;;;;;;5.58;53.66;98743.97;5052406;28;20025;-62
2022/03/26 00:52:23;;;;;;;20.30;7.45;;;;;;;5.68;53.56;98744.09;5052019;28;20035;-61
2022/03/26 00:54:49;;;;;;;14.13;7.45;;;;;;;5.67;53.77;98721.16;5052211;28;20124;-60
2022/03/26 00:57:16;;;;;;;11.32;7.40;;;;;;;5.73;53.29;98710.06;5051965;28;20051;-61
2022/03/26 00:59:43;;;;;;;12.18;7.60;;;;;;;5.79;53.41;98713.19;5051946;28;20029;-61
2022/03/26 01:02:08;;;;;;;12.63;7.75;;;;;;;5.84;52.74;98706.56;5052203;28;20572;-62
2022/03/26 01:04:34;;;;;;;14.90;7.55;;;;;;;5.91;52.93;98695.44;5051621;28;20033;-62
2022/03/26 01:06:59;;;;;;;12.88;7.80;;;;;;;5.97;53.02;98697.59;5051639;28;20025;-63
2022/03/26 01:09:25;;;;;;;16.52;7.95;;;;;;;6.03;52.52;98700.66;5052093;28;20081;-62
2022/03/26 01:11:50;;;;;;;12.95;7.63;;;;;;;6.10;52.07;98693.03;5051616;28;20116;-61
2022/03/26 01:14:16;;;;;;;14.60;8.10;;;;;;;6.18;52.13;98690.59;5051919;28;20124;-63
2022/03/26 01:16:41;;;;;;;12.50;7.32;;;;;;;6.28;51.44;98676.59;5051962;28;20036;-61
2022/03/26 01:19:07;;;;;;;13.23;7.75;;;;;;;6.31;51.67;98665.69;5051747;28;20029;-62
2022/03/26 01:21:32;;;;;;;13.95;7.28;;;;;;;6.45;50.88;98670.69;5033363;28;20021;-61
2022/03/26 01:23:58;;;;;;;15.68;7.30;;;;;;;6.40;50.84;98638.34;5051724;28;20036;-60
2022/03/26 01:26:24;;;;;;;13.00;7.50;;;;;;;6.45;50.71;98633.47;5050644;28;20028;-61
2022/03/26 01:28:49;;;;;;;12.30;7.20;;;;;;;6.53;50.48;98634.69;5051239;28;20025;-52
2022/03/26 01:31:19;;;;;;;11.75;6.57;;;;;;;6.64;50.35;98639.09;5051516;28;20086;-59
2022/03/26 01:33:47;;;;;;;20.23;7.55;;;;;;;6.66;50.04;98635.34;5052191;28;20048;-61
2022/03/26 01:36:13;;;;;;;13.88;7.30;;;;;;;6.70;50.15;98607.50;5049639;28;20048;-62
2022/03/26 01:38:38;;;;;;;12.00;6.97;;;;;;;6.73;49.75;98612.56;5051082;28;20041;-62
2022/03/26 01:41:04;;;;;;;14.65;7.65;;;;;;;6.76;49.71;98606.16;5051305;28;20418;-62
2022/03/26 01:43:29;;;;;;;12.23;6.95;;;;;;;6.79;49.74;98600.56;5051685;28;20139;-61
2022/03/26 01:45:55;;;;;;;12.90;7.25;;;;;;;6.82;49.09;98594.16;5051394;28;20043;-62
2022/03/26 01:48:21;;;;;;;20.58;7.32;;;;;;;6.84;49.03;98581.56;5051143;28;20025;-57
2022/03/26 01:50:46;;;;;;;12.80;7.28;;;;;;;6.82;49.09;98572.88;5051379;28;20485;-62
2022/03/26 01:53:12;;;;;;;14.05;7.43;;;;;;;6.55;49.23;98519.22;5051529;28;20459;-61
2022/03/26 01:55:37;;;;;;;14.52;7.30;;;;;;;6.81;49.17;98566.69;5050971;28;20033;-61
2022/03/26 01:58:03;;;;;;;18.25;7.18;;;;;;;6.80;48.93;98561.50;5050615;28;20044;-61
2022/03/26 02:00:30;;;;;;;12.52;7.32;;;;;;;6.80;49.15;98548.22;5050986;28;20391;-62
2022/03/26 02:02:56;;;;;;;13.20;7.20;;;;;;;6.81;48.44;98549.91;5051061;28;20072;-63
2022/03/26 02:05:22;;;;;;;12.57;7.55;;;;;;;6.83;48.28;98539.97;5051320;28;20028;-55
2022/03/26 02:07:49;;;;;;;12.77;6.97;;;;;;;6.87;48.19;98526.28;5050927;28;20024;-61
2022/03/26 02:10:17;;;;;;;16.63;7.43;;;;;;;6.89;48.21;98516.34;5050562;28;20688;-62
2022/03/26 02:12:45;;;;;;;10.85;7.28;;;;;;;6.94;47.52;98517.75;5051064;28;20386;-62
2022/03/26 02:15:11;;;;;;;13.60;7.20;;;;;;;6.96;47.29;98505.97;5051095;28;20032;-63
2022/03/26 02:17:37;;;;;;;14.90;7.85;;;;;;;6.92;47.36;98488.59;5050526;28;20041;-61
2022/03/26 02:20:14;;;;;;;15.40;7.82;;;;;;;7.00;47.63;98502.09;5050822;28;20066;-62
2022/03/26 02:22:40;;;;;;;12.27;7.15;;;;;;;6.98;47.19;98509.34;5051066;28;20032;-60
2022/03/26 02:25:07;;;;;;;15.52;6.97;;;;;;;7.09;46.93;98511.06;5051006;28;20033;-62
2022/03/26 02:27:33;;;;;;;16.77;7.70;;;;;;;7.02;46.79;98493.97;5050482;28;20036;-61
2022/03/26 02:29:59;;;;;;;16.05;8.10;;;;;;;7.08;46.73;98487.28;5050439;28;20033;-62
2022/03/26 02:32:27;;;;;;;12.02;7.60;;;;;;;7.15;46.48;98494.59;5051146;28;20031;-60
2022/03/26 02:34:53;;;;;;;11.70;7.47;;;;;;;7.17;46.29;98486.47;5050336;28;20045;-62
2022/03/26 02:37:19;;;;;;;18.20;7.47;;;;;;;7.15;46.61;98483.09;5050517;28;20044;-62
2022/03/26 02:39:45;;;;;;;11.35;7.35;;;;;;;7.15;46.55;98477.75;5050142;28;20483;-60
2022/03/26 02:42:12;;;;;;;16.85;7.43;;;;;;;7.14;46.06;98471.63;5050030;28;20029;-62
2022/03/26 02:44:38;;;;;;;15.60;7.75;;;;;;;7.14;46.21;98457.44;5050491;28;20036;-62
2022/03/26 02:47:04;;;;;;;13.82;7.18;;;;;;;7.14;46.27;98444.13;5052862;28;20029;-63
2022/03/26 02:49:29;;;;;;;13.95;8.05;;;;;;;7.21;46.18;98444.44;5054360;28;20475;-61
2022/03/26 02:51:55;;;;;;;12.43;7.28;;;;;;;7.21;46.26;98439.94;5036433;28;20036;-60
2022/03/26 02:54:20;;;;;;;16.40;7.88;;;;;;;7.09;46.30;98425.09;5054431;28;20032;-62
2022/03/26 02:56:51;;;;;;;12.10;7.60;;;;;;;7.17;46.15;98409.25;5053778;28;20036;-61
2022/03/26 02:59:18;;;;;;;14.50;7.55;;;;;;;7.22;46.40;98419.50;5054376;28;20399;-62
2022/03/26 03:01:44;;;;;;;14.27;7.55;;;;;;;7.22;46.54;98417.66;5053973;28;20036;-63
2022/03/26 03:04:09;;;;;;;14.10;8.00;;;;;;;7.21;47.11;98418.66;5054449;28;20052;-62
2022/03/26 03:06:35;;;;;;;15.52;7.88;;;;;;;7.12;47.27;98372.44;5054241;28;20029;-62
2022/03/26 03:09:06;;;;;;;17.70;8.38;;;;;;;7.20;46.89;98363.72;5054043;28;20142;-60
2022/03/26 03:11:32;;;;;;;15.48;8.07;;;;;;;7.15;47.26;98363.31;5053914;28;20475;-62
2022/03/26 03:13:58;;;;;;;10.45;7.80;;;;;;;7.11;48.09;98393.84;5053936;28;20033;-62
2022/03/26 03:16:24;;;;;;;13.40;7.93;;;;;;;7.12;48.38;98401.72;5053989;28;20086;-61
2022/03/26 03:18:50;;;;;;;12.25;8.10;;;;;;;7.14;47.83;98385.59;5054005;28;20033;-62
2022/03/26 03:21:16;;;;;;;14.70;8.68;;;;;;;7.11;49.35;98351.25;5054362;28;20071;-60
2022/03/26 03:23:41;;;;;;;14.23;8.45;;;;;;;7.10;50.27;98320.31;5053918;28;20080;-62
2022/03/26 03:26:07;;;;;;;12.30;8.20;;;;;;;7.10;50.01;98313.16;5053799;28;20029;-61
2022/03/26 03:28:32;;;;;;;15.95;8.77;;;;;;;7.05;49.26;98315.41;5054145;28;20021;-61
2022/03/26 03:30:57;;;;;;;16.25;8.88;;;;;;;6.95;49.66;98344.66;5054082;28;20112;-60
2022/03/26 03:33:23;;;;;;;15.45;8.70;;;;;;;6.84;50.08;98320.84;5053082;28;20040;-63
2022/03/26 03:35:49;;;;;;;14.93;8.15;;;;;;;6.81;50.49;98321.13;5053703;28;20163;-63
2022/03/26 03:38:15;;;;;;;14.32;8.73;;;;;;;6.74;51.05;98300.38;5053941;28;20029;-62
2022/03/26 03:40:40;;;;;;;15.23;8.90;;;;;;;6.53;51.09;98257.09;5053202;28;20037;-62
2022/03/26 03:43:06;;;;;;;14.63;8.35;;;;;;;6.75;50.63;98293.25;5052810;28;20033;-63
2022/03/26 03:45:31;;;;;;;14.02;8.30;;;;;;;6.73;49.66;98303.19;5053368;28;20531;-62
2022/03/26 03:47:57;;;;;;;19.05;8.93;;;;;;;6.80;50.18;98308.78;5053484;28;20108;-62
2022/03/26 03:50:23;;;;;;;13.85;8.77;;;;;;;6.81;51.02;98294.50;5053098;28;20382;-63
2022/03/26 03:52:48;;;;;;;20.52;9.25;;;;;;;6.78;50.40;98282.31;5053234;28;20044;-61
2022/03/26 03:55:14;;;;;;;16.67;9.02;;;;;;;6.84;50.41;98283.59;5053110;28;20124;-61
2022/03/26 03:57:42;;;;;;;15.50;8.80;;;;;;;6.91;50.08;98290.03;5052523;28;20386;-62
2022/03/26 04:00:12;;;;;;;14.18;8.93;;;;;;;6.92;49.72;98280.25;5053523;28;20029;-60
2022/03/26 04:02:39;;;;;;;14.57;8.73;;;;;;;6.90;49.71;98272.38;5052710;28;20049;-63
2022/03/26 04:05:05;;;;;;;15.80;8.65;;;;;;;6.96;48.75;98279.81;5052274;28;20029;-61
2022/03/26 04:07:31;;;;;;;17.05;8.73;;;;;;;6.96;48.65;98271.81;5053442;28;20048;-60
2022/03/26 04:09:56;;;;;;;20.98;9.00;;;;;;;6.96;48.97;98255.03;5053534;28;20459;-62
2022/03/26 04:12:22;;;;;;;16.65;8.45;;;;;;;6.95;48.60;98248.88;5035082;28;20025;-62
2022/03/26 04:14:47;;;;;;;13.90;8.95;;;;;;;6.99;48.87;98241.44;5052726;28;20036;-61
2022/03/26 04:17:13;;;;;;;14.38;8.38;;;;;;;6.92;48.42;98225.19;5053199;28;20040;-63
2022/03/26 04:19:41;;;;;;;14.55;8.68;;;;;;;7.08;48.26;98231.78;5053167;28;20044;-62
2022/03/26 04:22:07;;;;;;;16.90;8.88;;;;;;;7.08;48.28;98213.97;5052451;28;20037;-61
2022/03/26 04:24:35;;;;;;;14.25;8.68;;;;;;;7.10;48.25;98219.19;5034733;28;20033;-63
2022/03/26 04:27:02;;;;;;;16.67;9.02;;;;;;;7.14;47.56;98216.09;5053292;28;20103;-61
2022/03/26 04:29:28;;;;;;;13.07;8.93;;;;;;;7.19;47.79;98202.34;5071094;28;20035;-62
2022/03/26 04:31:54;;;;;;;16.70;8.38;;;;;;;7.25;48.08;98199.13;5072100;28;20040;-62
2022/03/26 04:34:20;;;;;;;16.08;9.27;;;;;;;7.27;47.37;98194.50;5072370;28;20563;-63
2022/03/26 04:36:45;;;;;;;14.75;9.18;;;;;;;7.29;47.48;98179.22;5072300;28;20178;-64
2022/03/26 04:39:11;;;;;;;15.80;8.77;;;;;;;7.12;47.56;98135.56;5072589;28;20154;-61
2022/03/26 04:41:36;;;;;;;17.15;8.45;;;;;;;7.36;46.83;98168.84;5071632;28;20036;-63
2022/03/26 04:44:02;;;;;;;14.77;9.00;;;;;;;7.37;47.00;98149.22;5072326;28;20092;-62
2022/03/26 04:46:28;;;;;;;16.35;8.82;;;;;;;7.38;46.65;98147.38;5072600;28;20037;-62
2022/03/26 04:48:53;;;;;;;14.55;8.65;;;;;;;7.37;46.65;98146.56;5072187;28;20035;-62
2022/03/26 04:51:19;;;;;;;16.88;8.95;;;;;;;7.44;47.09;98136.16;5072061;28;20029;-62
2022/03/26 04:53:44;;;;;;;15.68;8.50;;;;;;;7.46;46.32;98118.19;5072363;28;20109;-63
2022/03/26 04:56:10;;;;;;;15.43;8.98;;;;;;;7.30;46.51;98076.22;5071993;28;20382;-62
2022/03/26 04:58:36;;;;;;;14.23;8.15;;;;;;;7.54;46.43;98105.00;5071673;28;20040;-61
2022/03/26 05:01:02;;;;;;;14.18;8.95;;;;;;;7.57;46.17;98098.53;5072376;28;20040;-61
2022/03/26 05:03:28;;;;;;;12.52;7.82;;;;;;;7.63;46.01;98091.78;5072636;28;20032;-64
2022/03/26 05:05:53;;;;;;;15.75;8.35;;;;;;;7.70;45.66;98082.22;5072266;28;20041;-63
2022/03/26 05:08:19;;;;;;;14.00;8.63;;;;;;;7.69;45.82;98080.53;5054602;28;20028;-64
2022/03/26 05:10:45;;;;;;;14.70;8.68;;;;;;;7.46;46.42;98048.97;5053674;28;20051;-64
2022/03/26 05:13:10;;;;;;;15.30;8.95;;;;;;;7.73;45.40;98076.59;5071473;28;20040;-63
2022/03/26 05:15:36;;;;;;;13.73;8.73;;;;;;;7.78;45.78;98074.31;5071711;28;20043;-61
2022/03/26 05:18:03;;;;;;;14.15;8.80;;;;;;;7.69;45.93;98045.91;5071828;28;20035;-62
2022/03/26 05:20:29;;;;;;;18.88;8.48;;;;;;;7.88;46.06;98064.44;5071511;28;20032;-62
2022/03/26 05:22:54;;;;;;;18.88;9.30;;;;;;;7.94;45.12;98060.34;5071566;28;20040;-63
2022/03/26 05:25:20;;;;;;;15.65;9.38;;;;;;;7.93;45.62;98056.00;5053961;28;20066;-64
2022/03/26 05:27:51;;;;;;;15.02;9.27;;;;;;;7.99;45.43;98055.38;5071248;28;20032;-61
2022/03/26 05:30:18;;;;;;;19.50;9.32;;;;;;;7.97;45.46;98061.88;5071318;28;20028;-62
2022/03/26 05:32:44;;;;;;;19.02;9.00;;;;;;;7.97;45.85;98062.69;5071423;28;20067;-63
2022/03/26 05:35:13;;;;;;;15.57;9.00;;;;;;;7.98;45.15;98050.22;5071332;28;20045;-62
2022/03/26 05:37:43;;;;;;;17.70;9.48;;;;;;;7.86;45.04;98023.78;5053666;28;20040;-65
2022/03/26 05:40:10;;;;;;;21.17;9.77;;;;;;;8.00;45.15;98026.94;5071386;28;20067;-64
2022/03/26 05:42:37;;;;;;;17.60;8.95;;;;;;;8.02;45.52;98022.28;5071074;28;20131;-67
2022/03/26 05:45:07;;;;;;;21.35;9.18;;;;;;;7.94;45.42;98006.19;5071854;28;20040;-64
2022/03/26 05:47:34;;;;;;;17.00;9.75;;;;;;;8.00;45.54;98008.28;5071667;28;20048;-69
2022/03/26 05:50:00;;;;;;;15.88;8.90;;;;;;;8.10;45.45;98006.34;5071195;28;20060;-64
2022/03/26 05:52:26;;;;;;;16.90;8.98;;;;;;;8.18;45.00;97992.25;5071168;28;20082;-64
2022/03/26 05:54:52;;;;;;;17.02;9.52;;;;;;;8.30;45.09;97982.19;5071480;28;20446;-63
2022/03/26 05:57:18;;;;;;;13.68;9.32;;;;;;;8.40;44.54;97968.75;5070613;28;20036;-64
2022/03/26 05:59:45;;;;;;;16.27;9.18;;;;;;;8.53;44.29;97955.06;5071030;28;20068;-62
2022/03/26 06:02:13;;;;;;;16.60;8.95;;;;;;;8.63;43.69;97958.44;5071485;28;20032;-62
2022/03/26 06:04:43;;;;;;;18.33;10.10;;;;;;;8.71;43.69;97925.63;5071230;28;20033;-61
2022/03/26 06:07:09;;;;;;;14.88;8.60;;;;;;;8.84;43.84;97933.19;5070823;28;20032;-63
2022/03/26 06:09:36;;;;;;;19.35;9.93;;;;;;;8.85;43.49;97921.53;5053014;28;20055;-63
2022/03/26 06:12:02;;;;;;;18.05;9.60;;;;;;;8.93;42.86;97928.75;5071402;28;20040;-62
2022/03/26 06:14:28;;;;;;;17.67;10.07;;;;;;;8.93;43.14;97910.06;5070723;28;20028;-62
2022/03/26 06:16:55;;;;;;;14.80;9.73;;;;;;;8.86;42.69;97909.84;5070835;28;20036;-63
2022/03/26 06:19:20;;;;;;;19.90;9.95;;;;;;;8.74;43.25;97883.47;5052745;28;20033;-62
2022/03/26 06:21:46;;;;;;;21.83;9.48;;;;;;;8.82;43.43;97906.69;5070410;28;20078;-63
2022/03/26 06:24:12;;;;;;;21.48;9.50;;;;;;;8.75;43.69;97901.16;5070970;28;20032;-61
2022/03/26 06:26:39;;;;;;;17.60;10.07;;;;;;;8.66;43.88;97864.75;5052536;28;20126;-64
2022/03/26 06:29:05;;;;;;;17.75;9.35;;;;;;;8.79;43.64;97879.47;5070953;28;20134;-63
2022/03/26 06:31:31;;;;;;;16.17;9.60;;;;;;;8.80;43.67;97879.34;5052663;28;20394;-62
2022/03/26 06:33:57;;;;;;;17.45;8.90;;;;;;;8.83;43.61;97870.16;5070308;28;20556;-61
2022/03/26 06:36:23;;;;;;;15.63;10.00;;;;;;;8.83;43.36;97867.47;5070432;28;20048;-64
2022/03/26 06:38:48;;;;;;;20.15;10.10;;;;;;;8.60;43.56;97806.69;5052363;28;20028;-62
2022/03/26 06:41:15;;;;;;;17.15;9.95;;;;;;;8.89;43.44;97848.16;5070785;28;20115;-60
2022/03/26 06:43:42;;;;;;;19.85;9.95;;;;;;;8.89;43.21;97827.66;5070242;28;20466;-61
2022/03/26 06:46:08;;;;;;;14.68;9.82;;;;;;;8.90;43.15;97820.47;5070605;28;20038;-63
2022/03/26 06:48:35;;;;;;;20.23;10.13;;;;;;;8.80;43.40;97809.97;5071118;28;20107;-64
2022/03/26 06:51:01;;;;;;;15.07;9.63;;;;;;;8.76;43.24;97793.44;5070084;28;20358;-62
2022/03/26 06:53:28;;;;;;;16.38;9.10;;;;;;;8.87;43.59;97802.13;5069394;28;20436;-63
2022/03/26 06:55:55;;;;;;;16.77;9.85;;;;;;;8.59;43.38;97752.53;5070810;28;20028;-62
2022/03/26 06:58:20;;;;;;;18.45;10.07;;;;;;;8.85;43.82;97774.75;5051211;28;20028;-63
2022/03/26 07:00:46;;;;;;;17.30;9.75;;;;;;;8.85;43.54;97772.09;5046645;28;20439;-61
2022/03/26 07:03:11;;;;;;;18.77;10.40;;;;;;;8.89;43.74;97768.09;5069627;28;20036;-63
2022/03/26 07:05:37;;;;;;;16.05;9.82;;;;;;;8.97;43.11;97761.94;5051521;28;20029;-63
2022/03/26 07:08:04;;;;;;;18.63;9.73;;;;;;;8.90;43.54;97743.91;5069524;28;20070;-62
2022/03/26 07:10:29;;;;;;;17.90;9.43;;;;;;;8.78;43.47;97723.88;5069895;28;20028;-63
2022/03/26 07:12:55;;;;;;;19.90;10.07;;;;;;;8.89;43.38;97725.41;5070108;28;20025;-62
2022/03/26 07:15:21;;;;;;;22.55;10.25;;;;;;;8.96;43.67;97720.25;5069351;28;20028;-60
2022/03/26 07:17:46;;;;;;;16.63;9.25;;;;;;;9.01;43.69;97723.22;5069785;28;20028;-60
2022/03/26 07:20:12;;;;;;;22.90;10.02;;;;;;;8.91;44.03;97723.38;5070160;28;20033;-64
2022/03/26 07:22:38;;;;;;;20.38;10.75;;;;;;;8.88;44.21;97710.38;5070019;28;20051;-65
2022/03/26 07:25:05;;;;;;;22.58;11.10;;;;;;;8.82;44.22;97703.03;5069889;28;20033;-62
2022/03/26 07:27:35;;;;;;;18.73;10.68;;;;;;;8.86;44.86;97699.88;5034401;28;20064;-62
2022/03/26 07:30:02;;;;;;;18.90;10.65;;;;;;;8.86;44.90;97694.56;5069195;28;20025;-64
2022/03/26 07:32:29;;;;;;;18.15;9.98;;;;;;;8.92;44.39;97693.03;5052676;28;20919;-63
2022/03/26 07:34:55;;;;;;;18.45;10.23;;;;;;;8.90;44.19;97689.69;5071880;28;20056;-62
2022/03/26 07:37:20;;;;;;;20.60;10.68;;;;;;;8.81;44.70;97675.53;5072155;28;20478;-65
2022/03/26 07:39:46;;;;;;;19.60;10.82;;;;;;;8.72;44.64;97660.50;5073282;28;20081;-65
2022/03/26 07:42:11;;;;;;;18.52;10.68;;;;;;;8.77;44.92;97658.16;5053602;28;20036;-64
2022/03/26 07:44:37;;;;;;;20.73;9.77;;;;;;;8.82;44.92;97655.00;5072463;28;20036;-62
2022/03/26 07:47:03;;;;;;;19.33;10.18;;;;;;;8.84;44.61;97647.69;5073208;28;20152;-66
2022/03/26 07:49:29;;;;;;;18.92;10.35;;;;;;;8.83;44.82;97646.00;5073973;28;20025;-65
2022/03/26 07:51:54;;;;;;;16.58;9.77;;;;;;;8.41;44.94;97597.94;5073017;28;20033;-65
2022/03/26 07:54:20;;;;;;;18.60;10.02;;;;;;;8.61;45.68;97638.50;5053650;28;20086;-63
2022/03/26 07:56:45;;;;;;;20.27;10.00;;;;;;;8.48;46.48;97617.63;5071727;28;20527;-65
2022/03/26 07:59:11;;;;;;;19.58;9.90;;;;;;;8.46;47.16;97616.13;5020261;28;20020;-65
2022/03/26 08:01:36;;;;;;;17.00;9.82;;;;;;;8.43;46.58;97603.94;5072503;28;20082;-65
2022/03/26 08:04:02;;;;;;;21.20;10.63;;;;;;;8.38;48.45;97589.44;5071790;28;20036;-66
2022/03/26 08:06:27;;;;;;;17.08;10.20;;;;;;;8.48;48.16;97595.44;5053725;28;20456;-65
2022/03/26 08:08:53;;;;;;;22.83;10.70;;;;;;;8.59;49.03;97586.31;5072193;28;20033;-66
2022/03/26 08:11:18;;;;;;;19.42;9.77;;;;;;;8.70;48.54;97567.31;5071744;28;20367;-64
2022/03/26 08:13:44;;;;;;;14.75;9.57;;;;;;;8.84;48.38;97562.28;5071835;28;20031;-65
2022/03/26 08:16:10;;;;;;;16.58;9.50;;;;;;;8.76;48.30;97552.47;5071056;28;20111;-65
2022/03/26 08:18:36;;;;;;;19.98;10.27;;;;;;;8.70;48.99;97562.00;5072147;28;20515;-66
2022/03/26 08:21:02;;;;;;;18.63;9.77;;;;;;;8.60;49.40;97542.63;5071335;28;20048;-67
2022/03/26 08:23:28;;;;;;;16.88;9.90;;;;;;;8.45;50.16;97521.13;5053233;28;20029;-65
2022/03/26 08:28:38;;;;;;;16.05;10.45;;;;;;;8.05;51.47;97516.41;5070585;28;20025;-66
2022/03/26 08:31:03;;;;;;;17.70;9.90;;;;;;;7.93;52.48;97512.41;5070867;28;20040;-65
2022/03/26 08:33:29;;;;;;;14.80;9.93;;;;;;;7.73;52.64;97501.25;5070742;28;20032;-64
2022/03/26 08:35:55;;;;;;;19.73;9.95;;;;;;;7.70;52.83;97481.09;5052460;28;20045;-64
2022/03/26 08:38:20;;;;;;;16.23;10.63;;;;;;;7.74;52.98;97486.94;5070809;28;20033;-62
2022/03/26 08:40:47;;;;;;;22.95;10.40;;;;;;;7.73;53.83;97478.09;5070934;28;20437;-63
2022/03/26 08:43:13;;;;;;;20.30;10.85;;;;;;;7.81;53.86;97487.06;5070969;28;20466;-64
2022/03/26 08:45:40;;;;;;;15.00;10.27;;;;;;;7.55;53.54;97446.28;5069878;28;20041;-64
2022/03/26 08:48:06;;;;;;;19.73;11.23;;;;;;;7.78;54.17;97482.09;5071083;28;20127;-63
2022/03/26 08:50:32;;;;;;;18.13;10.65;;;;;;;7.78;54.17;97485.59;5071262;28;20097;-65
2022/03/26 08:52:58;;;;;;;20.45;11.32;;;;;;;7.73;55.13;97486.06;5071873;28;20028;-63
2022/03/26 08:55:25;;;;;;;22.08;12.02;;;;;;;7.70;55.20;97477.56;5071730;28;20020;-62
2022/03/26 08:57:51;;;;;;;23.60;11.65;;;;;;;7.67;54.86;97484.06;5054041;28;20085;-64
2022/03/26 09:00:17;;;;;;;21.42;11.63;;;;;;;7.56;55.87;97479.88;5071279;28;20428;-62
2022/03/26 09:02:44;;;;;;;22.08;11.68;;;;;;;7.58;55.19;97466.41;5071320;28;20036;-61
2022/03/26 09:05:12;;;;;;;22.92;11.98;;;;;;;7.52;55.59;97470.56;5072226;28;20037;-57
2022/03/26 09:07:38;;;;;;;23.55;11.70;;;;;;;7.45;55.85;97464.19;5072426;28;20032;-62
2022/03/26 09:10:04;;;;;;;22.45;11.27;;;;;;;7.37;57.10;97474.84;5071566;28;20032;-63
2022/03/26 09:12:29;;;;;;;18.85;11.27;;;;;;;7.28;56.82;97464.16;5071107;28;20036;-63
2022/03/26 09:14:55;;;;;;;22.05;11.30;;;;;;;7.19;56.98;97446.50;5071360;28;20039;-60
2022/03/26 09:17:20;;;;;;;22.27;11.95;;;;;;;7.14;58.17;97451.47;5071299;28;20028;-63
2022/03/26 09:19:46;;;;;;;22.15;11.38;;;;;;;7.08;58.53;97444.13;5069189;28;20523;-64
2022/03/26 09:22:11;;;;;;;23.13;11.20;;;;;;;7.07;57.82;97439.81;5070729;28;20062;-62
2022/03/26 09:24:37;;;;;;;19.23;11.73;;;;;;;7.03;58.38;97448.13;5072254;28;20064;-64
2022/03/26 09:27:03;;;;;;;19.27;11.57;;;;;;;6.97;57.81;97443.41;5070834;28;20069;-63
2022/03/26 09:29:28;;;;;;;19.17;11.10;;;;;;;6.88;57.92;97439.06;5069979;28;20028;-62
2022/03/26 09:31:54;;;;;;;20.48;12.05;;;;;;;6.80;58.71;97425.72;5070729;28;20082;-64
2022/03/26 09:34:20;;;;;;;20.65;11.75;;;;;;;6.82;58.66;97435.19;5071592;28;20048;-65
2022/03/26 09:36:46;;;;;;;20.38;12.07;;;;;;;6.82;58.44;97440.53;5052080;28;20103;-64
2022/03/26 09:39:11;;;;;;;17.55;11.77;;;;;;;6.74;59.54;97411.25;5070941;28;20037;-63
2022/03/26 09:41:37;;;;;;;20.50;11.23;;;;;;;6.66;59.38;97427.16;5071182;28;20036;-64
2022/03/26 09:44:03;;;;;;;19.52;10.90;;;;;;;6.54;60.08;97421.28;5071382;28;20612;-63
2022/03/26 09:46:29;;;;;;;19.23;12.25;;;;;;;6.52;60.79;97429.41;5070231;28;20109;-65
2022/03/26 09:48:54;;;;;;;22.05;11.73;;;;;;;6.20;61.02;97384.84;5071126;28;20033;-64
2022/03/26 09:51:23;;;;;;;17.20;11.45;;;;;;;6.50;61.11;97425.22;5070679;28;20029;-63
2022/03/26 09:53:50;;;;;;;20.45;11.95;;;;;;;6.49;60.30;97416.44;5071054;28;20036;-63
2022/03/26 09:56:17;;;;;;;23.63;13.20;;;;;;;6.50;60.84;97422.56;5052601;28;20145;-65
2022/03/26 09:58:43;;;;;;;22.85;12.07;;;;;;;6.52;61.31;97423.28;5071603;28;20039;-64
2022/03/26 10:01:08;;;;;;;21.40;12.95;;;;;;;6.51;60.84;97398.50;5070102;28;20029;-64
2022/03/26 10:03:38;;;;;;;22.83;12.25;;;;;;;6.70;60.07;97416.03;5071061;28;20028;-63
2022/03/26 10:06:07;;;;;;;25.55;13.10;;;;;;;6.73;59.85;97415.72;5070907;28;20060;-62
2022/03/26 10:08:40;;;;;;;22.40;12.45;;;;;;;6.78;59.82;97406.44;5070570;28;20458;-63
2022/03/26 10:11:09;;;;;;;23.65;12.43;;;;;;;6.57;60.25;97383.75;5070616;28;20028;-69
2022/03/26 10:13:39;;;;;;;23.63;12.88;;;;;;;6.70;60.71;97416.03;5071031;28;20098;-69
2022/03/26 10:16:10;;;;;;;22.42;13.40;;;;;;;6.79;60.59;97402.78;5068980;28;20104;-67
2022/03/26 10:18:38;;;;;;;24.65;13.20;;;;;;;6.89;60.38;97399.00;5070581;28;20051;-69
2022/03/26 10:21:07;;;;;;;23.27;13.02;;;;;;;7.07;59.95;97384.75;5070748;28;20078;-68
2022/03/26 10:23:32;;;;;;;19.50;12.13;;;;;;;7.22;59.18;97378.81;5070326;28;20028;-68
2022/03/26 10:26:08;;;;;;;22.20;13.20;;;;;;;7.48;58.95;97378.69;5070652;28;20039;-68
2022/03/26 10:28:35;;;;;;;26.25;12.30;;;;;;;7.60;57.90;97372.03;5070024;28;20378;-68
2022/03/26 10:34:16;;;;;;;21.70;12.43;;;;;;;7.82;57.13;97361.72;5061798;28;20091;-68
2022/03/26 10:36:44;;;;;;;17.50;11.40;;;;;;;7.69;57.44;97340.06;5070520;28;20094;-66
2022/03/26 10:39:15;;;;;;;19.65;12.63;;;;;;;7.87;57.41;97359.38;5070109;28;20029;-66
2022/03/26 10:41:41;;;;;;;20.20;12.48;;;;;;;7.96;56.82;97343.41;5070194;28;20079;-65
2022/03/26 10:44:16;;;;;;;18.88;11.43;;;;;;;8.12;56.10;97340.69;5052293;28;20032;-67
2022/03/26 10:46:58;;;;;;;18.07;11.53;;;;;;;8.24;55.84;97337.69;5052314;28;20047;-67
2022/03/26 10:49:32;;;;;;;20.90;11.75;;;;;;;8.33;55.04;97342.84;5052284;28;20486;-67
2022/03/26 10:52:10;;;;;;;18.95;11.85;;;;;;;8.47;55.05;97340.44;5069220;28;20021;-66
2022/03/26 10:54:35;;;;;;;20.50;12.80;;;;;;;8.79;54.13;97330.66;5036184;28;20028;-66
2022/03/26 10:57:02;;;;;;;19.00;11.48;;;;;;;9.10;53.18;97332.53;5069539;28;20390;-68
2022/03/26 10:59:28;;;;;;;23.45;12.02;;;;;;;9.18;52.96;97323.63;5069707;28;20032;-65
2022/03/26 11:01:54;;;;;;;18.52;11.38;;;;;;;9.10;52.46;97280.97;5069906;28;20104;-61
2022/03/26 11:04:20;;;;;;;19.83;11.05;;;;;;;9.09;51.58;97272.16;5069669;28;20071;-64
2022/03/26 11:06:47;;;;;;;17.48;10.57;;;;;;;9.32;50.65;97255.28;5070234;28;20062;-64
2022/03/26 11:09:15;;;;;;;18.50;11.15;;;;;;;9.77;49.47;97303.47;5074293;28;20024;-65
2022/03/26 11:11:42;;;;;;;17.92;11.05;;;;;;;9.52;49.61;97282.31;5074578;28;20028;-63
2022/03/26 11:14:16;;;;;;;15.27;9.20;;;;;;;9.46;50.81;97417.41;5055349;28;20036;-62
2022/03/26 11:17:15;;;;;;;8.95;5.05;;;;;;;8.79;50.90;97418.72;5073244;28;20524;-62
2022/03/26 11:19:59;;;;;;;13.77;3.60;;;;;;;7.92;52.00;97425.50;5074260;28;20041;-63
2022/03/26 11:22:35;;;;;;;7.18;3.03;;;;;;;7.56;52.48;97447.94;5073565;28;20041;-63
2022/03/26 11:25:06;;;;;;;;;;;;;;;7.69;52.34;97441.28;5055739;28;20386;-66
2022/03/26 11:27:53;;;;;;;4.60;2.13;;;;;;;7.46;51.62;97441.91;5056109;28;19990;-65
2022/03/26 11:30:40;;;;;;;5.82;2.05;;;;;;;7.16;51.58;97409.56;5056185;28;20101;-64
2022/03/26 11:33:10;;;;;;;3.55;1.48;;;;;;;7.43;50.44;97428.91;5055018;28;20097;-66
2022/03/26 11:35:59;;;;;;;6.07;1.65;;;;;;;7.04;50.82;97414.34;5073484;28;20074;-63